sensor_id;sensor_type;location;lat;lon;timestamp;P1;durP1;ratioP1;P2;durP2;ratioP2
21927;SDS011;11128;51.096;17.190;2022-07-29T00:01:20;3.08;;;2.05;;
21927;SDS011;11128;51.096;17.190;2022-07-29T00:06:21;4.63;;;2.00;;
21927;SDS011;11128;51.096;17.190;2022-07-29T00:11:23;4.45;;;2.33;;
21927;SDS011;11128;51.096;17.190;2022-07-29T00:16:24;4.72;;;2.03;;
21927;SDS011;11128;51.096;17.190;2022-07-29T00:21:26;4.25;;;2.20;;
21927;SDS011;11128;51.096;17.190;2022-07-29T00:26:27;5.43;;;2.17;;
21927;SDS011;11128;51.096;17.190;2022-07-29T00:31:32;4.30;;;1.85;;
21927;SDS011;11128;51.096;17.190;2022-07-29T00:36:33;5.35;;;2.00;;
21927;SDS011;11128;51.096;17.190;2022-07-29T00:41:35;3.50;;;2.03;;
21927;SDS011;11128;51.096;17.190;2022-07-29T00:46:36;4.78;;;2.10;;
21927;SDS011;11128;51.096;17.190;2022-07-29T00:51:38;3.58;;;2.00;;
21927;SDS011;11128;51.096;17.190;2022-07-29T00:56:40;2.92;;;1.52;;
21927;SDS011;11128;51.096;17.190;2022-07-29T01:01:42;4.45;;;2.00;;
21927;SDS011;11128;51.096;17.190;2022-07-29T01:06:43;4.95;;;1.85;;
21927;SDS011;11128;51.096;17.190;2022-07-29T01:11:45;4.65;;;2.10;;
21927;SDS011;11128;51.096;17.190;2022-07-29T01:16:51;2.88;;;2.05;;
21927;SDS011;11128;51.096;17.190;2022-07-29T01:22:07;5.10;;;1.70;;
21927;SDS011;11128;51.096;17.190;2022-07-29T01:27:38;4.93;;;2.05;;
21927;SDS011;11128;51.096;17.190;2022-07-29T01:33:03;3.08;;;1.80;;
21927;SDS011;11128;51.096;17.190;2022-07-29T01:38:12;3.03;;;1.85;;
21927;SDS011;11128;51.096;17.190;2022-07-29T01:43:22;5.90;;;2.50;;
21927;SDS011;11128;51.096;17.190;2022-07-29T01:59:25;5.05;;;2.20;;
21927;SDS011;11128;51.096;17.190;2022-07-29T02:04:29;3.70;;;2.28;;
21927;SDS011;11128;51.096;17.190;2022-07-29T02:09:33;4.80;;;2.20;;
21927;SDS011;11128;51.096;17.190;2022-07-29T02:14:38;7.05;;;2.67;;
21927;SDS011;11128;51.096;17.190;2022-07-29T02:19:42;4.50;;;2.17;;
21927;SDS011;11128;51.096;17.190;2022-07-29T02:24:45;3.53;;;2.30;;
21927;SDS011;11128;51.096;17.190;2022-07-29T02:29:48;2.33;;;1.88;;
21927;SDS011;11128;51.096;17.190;2022-07-29T02:34:50;4.72;;;2.60;;
21927;SDS011;11128;51.096;17.190;2022-07-29T02:39:53;4.35;;;2.35;;
21927;SDS011;11128;51.096;17.190;2022-07-29T02:44:56;9.13;;;2.85;;
21927;SDS011;11128;51.096;17.190;2022-07-29T02:50:09;5.60;;;2.80;;
21927;SDS011;11128;51.096;17.190;2022-07-29T02:55:26;6.07;;;2.55;;
21927;SDS011;11128;51.096;17.190;2022-07-29T03:00:32;6.97;;;2.50;;
21927;SDS011;11128;51.096;17.190;2022-07-29T03:05:37;8.93;;;2.78;;
21927;SDS011;11128;51.096;17.190;2022-07-29T03:10:40;8.27;;;3.00;;
21927;SDS011;11128;51.096;17.190;2022-07-29T03:15:46;4.60;;;2.47;;
21927;SDS011;11128;51.096;17.190;2022-07-29T03:20:48;4.45;;;2.78;;
21927;SDS011;11128;51.096;17.190;2022-07-29T03:25:50;6.22;;;2.42;;
21927;SDS011;11128;51.096;17.190;2022-07-29T03:30:51;6.13;;;2.67;;
21927;SDS011;11128;51.096;17.190;2022-07-29T03:35:53;5.95;;;2.60;;
21927;SDS011;11128;51.096;17.190;2022-07-29T03:40:58;6.05;;;2.42;;
21927;SDS011;11128;51.096;17.190;2022-07-29T03:46:04;5.90;;;2.20;;
21927;SDS011;11128;51.096;17.190;2022-07-29T03:51:10;7.22;;;2.33;;
21927;SDS011;11128;51.096;17.190;2022-07-29T03:56:11;5.03;;;2.55;;
21927;SDS011;11128;51.096;17.190;2022-07-29T04:01:17;3.63;;;2.53;;
21927;SDS011;11128;51.096;17.190;2022-07-29T04:06:19;8.18;;;2.97;;
21927;SDS011;11128;51.096;17.190;2022-07-29T04:11:20;5.13;;;2.78;;
21927;SDS011;11128;51.096;17.190;2022-07-29T04:16:22;6.35;;;2.67;;
21927;SDS011;11128;51.096;17.190;2022-07-29T04:21:23;3.35;;;2.08;;
21927;SDS011;11128;51.096;17.190;2022-07-29T04:26:25;7.85;;;2.38;;
21927;SDS011;11128;51.096;17.190;2022-07-29T04:31:26;3.60;;;2.33;;
21927;SDS011;11128;51.096;17.190;2022-07-29T04:36:28;9.85;;;2.58;;
21927;SDS011;11128;51.096;17.190;2022-07-29T04:41:30;5.68;;;2.17;;
21927;SDS011;11128;51.096;17.190;2022-07-29T04:46:31;8.30;;;2.85;;
21927;SDS011;11128;51.096;17.190;2022-07-29T04:51:33;6.47;;;2.60;;
21927;SDS011;11128;51.096;17.190;2022-07-29T04:56:36;9.05;;;2.63;;
21927;SDS011;11128;51.096;17.190;2022-07-29T05:01:37;8.43;;;2.60;;
21927;SDS011;11128;51.096;17.190;2022-07-29T05:06:38;6.25;;;2.22;;
21927;SDS011;11128;51.096;17.190;2022-07-29T05:11:40;3.53;;;1.98;;
21927;SDS011;11128;51.096;17.190;2022-07-29T05:16:42;4.75;;;2.60;;
21927;SDS011;11128;51.096;17.190;2022-07-29T05:21:44;3.90;;;1.98;;
21927;SDS011;11128;51.096;17.190;2022-07-29T05:26:46;5.90;;;1.92;;
21927;SDS011;11128;51.096;17.190;2022-07-29T05:31:47;5.65;;;2.03;;
21927;SDS011;11128;51.096;17.190;2022-07-29T05:36:49;4.47;;;2.08;;
21927;SDS011;11128;51.096;17.190;2022-07-29T05:41:50;6.10;;;1.55;;
21927;SDS011;11128;51.096;17.190;2022-07-29T05:46:51;5.47;;;2.10;;
21927;SDS011;11128;51.096;17.190;2022-07-29T05:51:53;5.50;;;2.33;;
21927;SDS011;11128;51.096;17.190;2022-07-29T05:56:54;6.72;;;1.80;;
21927;SDS011;11128;51.096;17.190;2022-07-29T06:01:56;6.82;;;2.30;;
21927;SDS011;11128;51.096;17.190;2022-07-29T06:06:58;5.55;;;1.70;;
21927;SDS011;11128;51.096;17.190;2022-07-29T06:11:59;3.55;;;1.63;;
21927;SDS011;11128;51.096;17.190;2022-07-29T06:17:02;2.40;;;1.45;;
21927;SDS011;11128;51.096;17.190;2022-07-29T06:22:03;4.82;;;1.83;;
21927;SDS011;11128;51.096;17.190;2022-07-29T06:27:05;2.83;;;1.33;;
21927;SDS011;11128;51.096;17.190;2022-07-29T06:32:06;4.40;;;1.40;;
21927;SDS011;11128;51.096;17.190;2022-07-29T06:37:09;3.50;;;1.30;;
21927;SDS011;11128;51.096;17.190;2022-07-29T06:42:11;5.70;;;1.60;;
21927;SDS011;11128;51.096;17.190;2022-07-29T06:47:13;3.97;;;1.83;;
21927;SDS011;11128;51.096;17.190;2022-07-29T06:52:14;4.45;;;2.22;;
21927;SDS011;11128;51.096;17.190;2022-07-29T06:57:16;3.92;;;1.63;;
21927;SDS011;11128;51.096;17.190;2022-07-29T07:02:17;3.28;;;1.55;;
21927;SDS011;11128;51.096;17.190;2022-07-29T07:07:19;2.30;;;1.35;;
21927;SDS011;11128;51.096;17.190;2022-07-29T07:12:21;4.72;;;1.50;;
21927;SDS011;11128;51.096;17.190;2022-07-29T07:17:22;2.83;;;1.55;;
21927;SDS011;11128;51.096;17.190;2022-07-29T07:22:24;3.00;;;1.67;;
21927;SDS011;11128;51.096;17.190;2022-07-29T07:27:26;2.67;;;1.35;;
21927;SDS011;11128;51.096;17.190;2022-07-29T07:32:28;3.83;;;1.83;;
21927;SDS011;11128;51.096;17.190;2022-07-29T07:37:29;2.85;;;1.40;;
21927;SDS011;11128;51.096;17.190;2022-07-29T07:42:31;3.53;;;1.52;;
21927;SDS011;11128;51.096;17.190;2022-07-29T07:47:34;4.85;;;1.48;;
21927;SDS011;11128;51.096;17.190;2022-07-29T07:52:58;4.68;;;2.17;;
21927;SDS011;11128;51.096;17.190;2022-07-29T07:57:59;5.25;;;1.58;;
21927;SDS011;11128;51.096;17.190;2022-07-29T08:03:00;4.38;;;1.40;;
21927;SDS011;11128;51.096;17.190;2022-07-29T08:08:02;4.85;;;1.65;;
21927;SDS011;11128;51.096;17.190;2022-07-29T08:13:04;4.97;;;1.60;;
21927;SDS011;11128;51.096;17.190;2022-07-29T08:18:07;4.10;;;1.55;;
21927;SDS011;11128;51.096;17.190;2022-07-29T08:23:09;3.58;;;1.52;;
21927;SDS011;11128;51.096;17.190;2022-07-29T08:28:11;5.82;;;1.58;;
21927;SDS011;11128;51.096;17.190;2022-07-29T08:33:12;5.07;;;1.50;;
21927;SDS011;11128;51.096;17.190;2022-07-29T08:38:14;2.40;;;1.27;;
21927;SDS011;11128;51.096;17.190;2022-07-29T08:43:15;5.22;;;1.67;;
21927;SDS011;11128;51.096;17.190;2022-07-29T08:48:18;5.10;;;1.45;;
21927;SDS011;11128;51.096;17.190;2022-07-29T08:53:21;2.92;;;1.88;;
21927;SDS011;11128;51.096;17.190;2022-07-29T08:58:27;3.05;;;1.40;;
21927;SDS011;11128;51.096;17.190;2022-07-29T09:03:33;3.60;;;1.23;;
21927;SDS011;11128;51.096;17.190;2022-07-29T09:08:37;3.65;;;1.67;;
21927;SDS011;11128;51.096;17.190;2022-07-29T09:13:40;6.15;;;1.80;;
21927;SDS011;11128;51.096;17.190;2022-07-29T09:18:43;4.30;;;2.05;;
21927;SDS011;11128;51.096;17.190;2022-07-29T09:23:59;3.47;;;1.83;;
21927;SDS011;11128;51.096;17.190;2022-07-29T09:29:07;6.53;;;1.60;;
21927;SDS011;11128;51.096;17.190;2022-07-29T09:34:10;3.75;;;2.05;;
21927;SDS011;11128;51.096;17.190;2022-07-29T09:39:14;3.75;;;1.40;;
21927;SDS011;11128;51.096;17.190;2022-07-29T09:44:26;2.42;;;1.77;;
21927;SDS011;11128;51.096;17.190;2022-07-29T09:49:57;4.07;;;1.58;;
21927;SDS011;11128;51.096;17.190;2022-07-29T09:55:06;4.72;;;2.30;;
21927;SDS011;11128;51.096;17.190;2022-07-29T10:05:22;4.82;;;1.95;;
21927;SDS011;11128;51.096;17.190;2022-07-29T10:10:27;5.35;;;2.00;;
21927;SDS011;11128;51.096;17.190;2022-07-29T10:15:31;2.28;;;1.85;;
21927;SDS011;11128;51.096;17.190;2022-07-29T10:20:38;5.07;;;1.67;;
21927;SDS011;11128;51.096;17.190;2022-07-29T10:25:40;3.63;;;1.75;;
21927;SDS011;11128;51.096;17.190;2022-07-29T10:30:42;5.25;;;1.90;;
21927;SDS011;11128;51.096;17.190;2022-07-29T10:35:54;10.65;;;5.10;;
21927;SDS011;11128;51.096;17.190;2022-07-29T10:46:27;4.65;;;2.10;;
21927;SDS011;11128;51.096;17.190;2022-07-29T10:56:52;2.58;;;1.60;;
21927;SDS011;11128;51.096;17.190;2022-07-29T11:01:53;2.22;;;1.67;;
21927;SDS011;11128;51.096;17.190;2022-07-29T11:22:55;4.47;;;1.80;;
21927;SDS011;11128;51.096;17.190;2022-07-29T11:28:09;7.10;;;1.90;;
21927;SDS011;11128;51.096;17.190;2022-07-29T11:33:30;2.78;;;1.80;;
21927;SDS011;11128;51.096;17.190;2022-07-29T11:38:32;3.20;;;1.83;;
21927;SDS011;11128;51.096;17.190;2022-07-29T11:43:53;3.85;;;2.00;;
21927;SDS011;11128;51.096;17.190;2022-07-29T11:48:58;3.72;;;1.60;;
21927;SDS011;11128;51.096;17.190;2022-07-29T11:54:01;3.33;;;1.80;;
21927;SDS011;11128;51.096;17.190;2022-07-29T11:59:06;4.03;;;2.40;;
21927;SDS011;11128;51.096;17.190;2022-07-29T12:04:10;5.03;;;2.47;;
21927;SDS011;11128;51.096;17.190;2022-07-29T12:09:11;5.72;;;2.05;;
21927;SDS011;11128;51.096;17.190;2022-07-29T12:14:29;4.07;;;1.75;;
21927;SDS011;11128;51.096;17.190;2022-07-29T12:19:41;3.42;;;2.15;;
21927;SDS011;11128;51.096;17.190;2022-07-29T12:24:44;6.53;;;2.30;;
21927;SDS011;11128;51.096;17.190;2022-07-29T12:29:54;4.85;;;2.17;;
21927;SDS011;11128;51.096;17.190;2022-07-29T12:35:10;3.45;;;2.20;;
21927;SDS011;11128;51.096;17.190;2022-07-29T12:40:16;5.28;;;2.10;;
21927;SDS011;11128;51.096;17.190;2022-07-29T12:45:27;10.38;;;3.38;;
21927;SDS011;11128;51.096;17.190;2022-07-29T12:50:30;6.05;;;2.58;;
21927;SDS011;11128;51.096;17.190;2022-07-29T12:55:40;3.33;;;2.10;;
21927;SDS011;11128;51.096;17.190;2022-07-29T13:00:43;5.95;;;2.97;;
21927;SDS011;11128;51.096;17.190;2022-07-29T13:05:45;6.03;;;2.75;;
21927;SDS011;11128;51.096;17.190;2022-07-29T13:10:47;7.38;;;3.88;;
21927;SDS011;11128;51.096;17.190;2022-07-29T13:15:53;7.93;;;3.20;;
21927;SDS011;11128;51.096;17.190;2022-07-29T13:26:16;6.22;;;3.33;;
21927;SDS011;11128;51.096;17.190;2022-07-29T13:31:20;6.85;;;3.25;;
21927;SDS011;11128;51.096;17.190;2022-07-29T13:36:22;3.42;;;2.20;;
21927;SDS011;11128;51.096;17.190;2022-07-29T13:41:24;4.97;;;3.13;;
21927;SDS011;11128;51.096;17.190;2022-07-29T13:46:26;10.45;;;3.97;;
21927;SDS011;11128;51.096;17.190;2022-07-29T13:51:27;9.05;;;2.83;;
21927;SDS011;11128;51.096;17.190;2022-07-29T13:56:29;9.02;;;2.53;;
21927;SDS011;11128;51.096;17.190;2022-07-29T14:01:31;5.05;;;3.00;;
21927;SDS011;11128;51.096;17.190;2022-07-29T14:06:32;3.83;;;2.40;;
21927;SDS011;11128;51.096;17.190;2022-07-29T14:11:34;3.63;;;2.60;;
21927;SDS011;11128;51.096;17.190;2022-07-29T14:16:37;10.00;;;3.55;;
21927;SDS011;11128;51.096;17.190;2022-07-29T14:21:38;4.25;;;2.30;;
21927;SDS011;11128;51.096;17.190;2022-07-29T14:26:40;4.18;;;2.08;;
21927;SDS011;11128;51.096;17.190;2022-07-29T14:31:42;5.53;;;2.58;;
21927;SDS011;11128;51.096;17.190;2022-07-29T14:36:44;8.88;;;2.53;;
21927;SDS011;11128;51.096;17.190;2022-07-29T14:41:46;7.07;;;2.47;;
21927;SDS011;11128;51.096;17.190;2022-07-29T14:46:48;3.88;;;2.30;;
21927;SDS011;11128;51.096;17.190;2022-07-29T14:51:50;5.32;;;2.70;;
21927;SDS011;11128;51.096;17.190;2022-07-29T14:56:52;5.60;;;2.60;;
21927;SDS011;11128;51.096;17.190;2022-07-29T15:01:57;6.70;;;2.80;;
21927;SDS011;11128;51.096;17.190;2022-07-29T15:07:00;4.55;;;2.35;;
21927;SDS011;11128;51.096;17.190;2022-07-29T15:12:01;6.32;;;3.10;;
21927;SDS011;11128;51.096;17.190;2022-07-29T15:17:04;2.97;;;2.65;;
21927;SDS011;11128;51.096;17.190;2022-07-29T15:22:06;3.65;;;2.55;;
21927;SDS011;11128;51.096;17.190;2022-07-29T15:27:08;3.85;;;2.53;;
21927;SDS011;11128;51.096;17.190;2022-07-29T15:32:15;5.43;;;2.30;;
21927;SDS011;11128;51.096;17.190;2022-07-29T15:37:17;7.68;;;2.60;;
21927;SDS011;11128;51.096;17.190;2022-07-29T15:42:19;5.15;;;2.55;;
21927;SDS011;11128;51.096;17.190;2022-07-29T15:47:20;6.93;;;2.38;;
21927;SDS011;11128;51.096;17.190;2022-07-29T15:52:22;3.70;;;2.70;;
21927;SDS011;11128;51.096;17.190;2022-07-29T15:57:24;4.22;;;2.80;;
21927;SDS011;11128;51.096;17.190;2022-07-29T16:02:26;3.17;;;2.58;;
21927;SDS011;11128;51.096;17.190;2022-07-29T16:07:27;6.13;;;2.92;;
21927;SDS011;11128;51.096;17.190;2022-07-29T16:12:29;4.68;;;2.88;;
21927;SDS011;11128;51.096;17.190;2022-07-29T16:17:31;4.43;;;2.90;;
21927;SDS011;11128;51.096;17.190;2022-07-29T16:22:33;4.82;;;2.38;;
21927;SDS011;11128;51.096;17.190;2022-07-29T16:27:35;3.53;;;2.85;;
21927;SDS011;11128;51.096;17.190;2022-07-29T16:32:39;3.90;;;2.63;;
21927;SDS011;11128;51.096;17.190;2022-07-29T16:37:41;3.22;;;2.50;;
21927;SDS011;11128;51.096;17.190;2022-07-29T16:42:43;4.60;;;2.60;;
21927;SDS011;11128;51.096;17.190;2022-07-29T16:47:45;3.42;;;2.53;;
21927;SDS011;11128;51.096;17.190;2022-07-29T16:52:47;4.30;;;2.45;;
21927;SDS011;11128;51.096;17.190;2022-07-29T16:57:49;3.55;;;2.75;;
21927;SDS011;11128;51.096;17.190;2022-07-29T17:02:52;7.03;;;2.67;;
21927;SDS011;11128;51.096;17.190;2022-07-29T17:07:54;4.50;;;2.65;;
21927;SDS011;11128;51.096;17.190;2022-07-29T17:12:56;7.10;;;2.60;;
21927;SDS011;11128;51.096;17.190;2022-07-29T17:17:58;6.35;;;3.30;;
21927;SDS011;11128;51.096;17.190;2022-07-29T17:23:01;7.43;;;3.30;;
21927;SDS011;11128;51.096;17.190;2022-07-29T17:28:03;6.53;;;3.20;;
21927;SDS011;11128;51.096;17.190;2022-07-29T17:33:05;7.13;;;2.95;;
21927;SDS011;11128;51.096;17.190;2022-07-29T17:38:07;5.97;;;3.17;;
21927;SDS011;11128;51.096;17.190;2022-07-29T17:43:09;6.18;;;2.72;;
21927;SDS011;11128;51.096;17.190;2022-07-29T17:48:10;8.45;;;3.10;;
21927;SDS011;11128;51.096;17.190;2022-07-29T17:53:12;5.55;;;3.00;;
21927;SDS011;11128;51.096;17.190;2022-07-29T17:58:14;5.18;;;2.97;;
21927;SDS011;11128;51.096;17.190;2022-07-29T18:03:16;5.97;;;2.92;;
21927;SDS011;11128;51.096;17.190;2022-07-29T18:08:18;4.78;;;2.97;;
21927;SDS011;11128;51.096;17.190;2022-07-29T18:13:19;5.38;;;3.42;;
21927;SDS011;11128;51.096;17.190;2022-07-29T18:18:21;6.18;;;3.35;;
21927;SDS011;11128;51.096;17.190;2022-07-29T18:23:23;7.57;;;3.60;;
21927;SDS011;11128;51.096;17.190;2022-07-29T18:28:24;6.70;;;3.53;;
21927;SDS011;11128;51.096;17.190;2022-07-29T18:33:26;7.90;;;3.30;;
21927;SDS011;11128;51.096;17.190;2022-07-29T18:38:27;6.03;;;3.90;;
21927;SDS011;11128;51.096;17.190;2022-07-29T18:43:29;6.75;;;3.90;;
21927;SDS011;11128;51.096;17.190;2022-07-29T18:48:31;9.15;;;3.78;;
21927;SDS011;11128;51.096;17.190;2022-07-29T18:53:34;5.68;;;3.50;;
21927;SDS011;11128;51.096;17.190;2022-07-29T18:58:36;6.55;;;3.63;;
21927;SDS011;11128;51.096;17.190;2022-07-29T19:03:38;4.88;;;3.47;;
21927;SDS011;11128;51.096;17.190;2022-07-29T19:08:40;7.95;;;4.05;;
21927;SDS011;11128;51.096;17.190;2022-07-29T19:13:42;7.22;;;3.78;;
21927;SDS011;11128;51.096;17.190;2022-07-29T19:18:44;8.57;;;4.07;;
21927;SDS011;11128;51.096;17.190;2022-07-29T19:23:47;5.93;;;3.35;;
21927;SDS011;11128;51.096;17.190;2022-07-29T19:28:48;4.80;;;4.00;;
21927;SDS011;11128;51.096;17.190;2022-07-29T19:33:50;9.10;;;3.90;;
21927;SDS011;11128;51.096;17.190;2022-07-29T19:38:52;7.97;;;4.03;;
21927;SDS011;11128;51.096;17.190;2022-07-29T19:43:53;9.38;;;4.38;;
21927;SDS011;11128;51.096;17.190;2022-07-29T19:48:55;8.30;;;4.05;;
21927;SDS011;11128;51.096;17.190;2022-07-29T19:53:56;6.72;;;3.92;;
21927;SDS011;11128;51.096;17.190;2022-07-29T19:58:58;8.85;;;4.40;;
21927;SDS011;11128;51.096;17.190;2022-07-29T20:04:00;9.60;;;4.75;;
21927;SDS011;11128;51.096;17.190;2022-07-29T20:09:02;12.45;;;4.38;;
21927;SDS011;11128;51.096;17.190;2022-07-29T20:14:05;10.68;;;5.00;;
21927;SDS011;11128;51.096;17.190;2022-07-29T20:19:07;9.70;;;5.72;;
21927;SDS011;11128;51.096;17.190;2022-07-29T20:24:08;9.68;;;5.50;;
21927;SDS011;11128;51.096;17.190;2022-07-29T20:29:11;10.20;;;5.40;;
21927;SDS011;11128;51.096;17.190;2022-07-29T20:34:13;10.05;;;5.35;;
21927;SDS011;11128;51.096;17.190;2022-07-29T20:39:14;9.02;;;5.43;;
21927;SDS011;11128;51.096;17.190;2022-07-29T20:44:16;12.52;;;5.85;;
21927;SDS011;11128;51.096;17.190;2022-07-29T20:49:23;11.85;;;6.07;;
21927;SDS011;11128;51.096;17.190;2022-07-29T20:54:25;10.38;;;5.88;;
21927;SDS011;11128;51.096;17.190;2022-07-29T20:59:26;11.02;;;5.40;;
21927;SDS011;11128;51.096;17.190;2022-07-29T21:04:28;11.02;;;5.25;;
21927;SDS011;11128;51.096;17.190;2022-07-29T21:09:29;9.23;;;5.10;;
21927;SDS011;11128;51.096;17.190;2022-07-29T21:14:31;13.38;;;4.85;;
21927;SDS011;11128;51.096;17.190;2022-07-29T21:19:35;15.77;;;5.88;;
21927;SDS011;11128;51.096;17.190;2022-07-29T21:24:37;13.23;;;4.97;;
21927;SDS011;11128;51.096;17.190;2022-07-29T21:29:38;10.13;;;4.85;;
21927;SDS011;11128;51.096;17.190;2022-07-29T21:34:40;10.35;;;4.63;;
21927;SDS011;11128;51.096;17.190;2022-07-29T21:39:41;9.35;;;5.07;;
21927;SDS011;11128;51.096;17.190;2022-07-29T21:44:43;9.40;;;4.80;;
21927;SDS011;11128;51.096;17.190;2022-07-29T21:49:44;12.57;;;5.13;;
21927;SDS011;11128;51.096;17.190;2022-07-29T21:54:46;8.77;;;4.90;;
21927;SDS011;11128;51.096;17.190;2022-07-29T21:59:48;7.68;;;4.82;;
21927;SDS011;11128;51.096;17.190;2022-07-29T22:04:49;8.02;;;4.45;;
21927;SDS011;11128;51.096;17.190;2022-07-29T22:09:51;6.78;;;4.60;;
21927;SDS011;11128;51.096;17.190;2022-07-29T22:14:53;8.60;;;4.88;;
21927;SDS011;11128;51.096;17.190;2022-07-29T22:19:55;8.60;;;4.50;;
21927;SDS011;11128;51.096;17.190;2022-07-29T22:24:58;8.18;;;4.88;;
21927;SDS011;11128;51.096;17.190;2022-07-29T22:29:59;8.95;;;5.20;;
21927;SDS011;11128;51.096;17.190;2022-07-29T22:35:01;9.15;;;4.80;;
21927;SDS011;11128;51.096;17.190;2022-07-29T22:40:03;9.98;;;5.63;;
21927;SDS011;11128;51.096;17.190;2022-07-29T22:45:05;6.72;;;4.95;;
21927;SDS011;11128;51.096;17.190;2022-07-29T22:50:09;6.53;;;4.45;;
21927;SDS011;11128;51.096;17.190;2022-07-29T22:55:10;9.82;;;5.20;;
21927;SDS011;11128;51.096;17.190;2022-07-29T23:00:13;8.20;;;4.55;;
21927;SDS011;11128;51.096;17.190;2022-07-29T23:05:14;8.55;;;4.50;;
21927;SDS011;11128;51.096;17.190;2022-07-29T23:10:16;9.50;;;4.88;;
21927;SDS011;11128;51.096;17.190;2022-07-29T23:15:17;8.65;;;4.45;;
21927;SDS011;11128;51.096;17.190;2022-07-29T23:20:19;10.45;;;4.65;;
21927;SDS011;11128;51.096;17.190;2022-07-29T23:25:20;11.60;;;4.60;;
21927;SDS011;11128;51.096;17.190;2022-07-29T23:30:23;11.93;;;4.63;;
21927;SDS011;11128;51.096;17.190;2022-07-29T23:35:26;8.93;;;3.80;;
21927;SDS011;11128;51.096;17.190;2022-07-29T23:40:27;7.88;;;3.83;;
21927;SDS011;11128;51.096;17.190;2022-07-29T23:45:29;5.95;;;3.53;;
21927;SDS011;11128;51.096;17.190;2022-07-29T23:50:32;5.40;;;3.47;;
21927;SDS011;11128;51.096;17.190;2022-07-29T23:55:33;5.95;;;3.38;;
